Arrington, Illinois
Current Conditions -  °F | °C
As of 11:35 PM on Monday 26 Jan 2015 (Local Time) from KFWC Reporting Station
Overcast Overcast  
Wind Chill: 32°   Ceiling: 6500
Heat Index: 32°   Visibility: 7mi
Dew Point: 30°   Wind: 0mph
Humidity: 92%   Direction: NA
Pressure: 29.9"   Gusts: NA
Location:  38.4104°N, 88.5287°W
Report Text: KFWC 270535Z AUTO 00000KT 7SM OVC065 00/M01 A2990 RMK AO1 T10011012
Loading
Personal Weather Stations






























Interactive Weather Map New forecast layout! Learn more

10-Day Weather Forecast

Advertisements
Track Severe Weather on mobile